KCKV/CKV METAR and TAF weather

Enter ICAO airport designator
Station Type Date Time Source
KCKV METAR 2019/10/15 08:52 UTC NOAA

KCKV 150852Z AUTO 00000KT 10SM OVC036 13/11 A3005 RMK AO2 SLP173 T01280111 58005


Station Type Date Time Source
KCKV Decoded METAR 2019/10/15 08:52 UTC NOAA

CLARKSVILLE OUTLAW FIELD, TN, United States (KCKV) 36-37N 87-25W 165M
Oct 15, 2019 - 04:52 AM EDT / 2019.10.15 0852 UTC
Wind: Calm:0
Visibility: 10 mile(s):0
Sky conditions: overcast
Temperature: 55.0 F (12.8 C)
Dew Point: 52.0 F (11.1 C)
Relative Humidity: 89%
Pressure (altimeter): 30.05 in. Hg (1017 hPa)
Pressure tendency: 0.01 inches (0.5 hPa) lower than three hours ago
ob: KCKV 150852Z AUTO 00000KT 10SM OVC036 13/11 A3005 RMK AO2 SLP173 T01280111 58005
cycle: 9

Station Type Date Time Source
KCKV TAF 2019/10/15 06:22 UTC NOAA

TAF KCKV 150520Z 1506/1606 00000KT P6SM SKC
FM151900 20010KT P6SM BKN150
FM152300 19006KT P6SM VCSH OVC045
FM160300 22006KT 5SM -SHRA OVC020

Example: see airport list